Milton, FL (32571)

2:43 AM CDT on April 30, 2017 (GMT -0500)
ECG Hamilton Bridge Rd. | | Change Station
Active Advisory: Wind Advisory

Elev 154 ft 30.63 °N, 87.12 °W | Updated 30 seconds ago

Clear
Clear
73.4 °F
Feels Like 71 °F
N
0.0
Wind Variable Wind from SSE
Gusts 0.0 mph

Today
High -- | Low -- °F
--% Chance of Precip.
Yesterday
High -- | Low -- °F
Precip. -- in
Pressure 29.96 in
Visibility 6.0 miles
Clouds Scattered Clouds 400 ft
Mostly Cloudy 1200 ft
Heat Index 71 °F
Dew Point 71 °F
Humidity 91%
Rainfall 0.00 in
Snow Depth Not available.
6:05 AM 7:26 PM
Waxing Crescent, 20% visible
SPECI KNDZ 300733Z AUTO 11008KT 6SM BR SCT004 BKN012 23/22 A2996 RMK AO2 T02280217 $
Pressure 29.96 in
Visibility 6.0 miles
Clouds Scattered Clouds 400 ft
Mostly Cloudy 1200 ft
Heat Index 71 °F
Dew Point 71 °F
Humidity 91%
Rainfall 0.00 in
Snow Depth Not available.
6:05 AM 7:26 PM
Waxing Crescent, 20% visible
SPECI KNDZ 300733Z AUTO 11008KT 6SM BR SCT004 BKN012 23/22 A2996 RMK AO2 T02280217 $

Get Your Daily Forecast Email!

Thanks for signing up!

Be on the lookout for a verification email in your inbox.

You'll start receiving severe weather alerts in your inbox..

×

10-Day Weather Forecast

Almanac

Astronomy

Apr. 30, 2017 Rise Set
Actual Time
Civil Twilight
Nautical Twilight
Astronomical Twilight
Moon
Length of Visible Light
Length of Day
Tomorrow will be .
, % of the Moon is Illuminated

Today's Extremes

State Highs State Lows

Community

WunderPhotos

WunderBlog® & News

Nearby

Air Quality

  Air Quality AQ Index Pollutant
Not available.

Snow Depth

Station Depth Elevation

Earthquake Activity

City Distance Mag. Time & Date
Minimum magnitude displayed is 2.5.

Coastal Water Temperatures

Place Temperature

Stations

Nearby Weather Stations

Station Location Temp. Windchill Dew Point Humidity Wind Precip. Elev Updated Type
                   

Watches & Warnings

Wind Advisory
Issued: 10:00 PM CDT Apr. 29, 2017 – National Weather Service

... Wind Advisory remains in effect until midnight CDT Sunday
night...

* timing... through Sunday night.

* Winds... south 15 to 25 mph with frequent gusts of 30 to 40
mph. The strongest winds will be during the day on Sunday.

* Impacts... the gusty winds could result in the Downing of large
limbs and weak trees, as well as blowing around loose lawn
objects. Travel will also be difficult at times especially if
traveling on bridges and overpasses as well as east to west
oriented roadways.

Precautionary/preparedness actions...

A Wind Advisory means that winds of 25 to 39 mph or frequent
gusts of 30 to 39 mph are expected. Winds this strong can make
driving difficult, especially for high profile vehicles. Use
extra caution. Secure loose outdoor objects to prevent them from
being blown around.